sensor_id;sensor_type;location;lat;lon;timestamp;P1;durP1;ratioP1;P2;durP2;ratioP2
18125;SDS011;53956;52.442;13.284;2023-05-07T00:02:04;21.37;;;15.87;;
18125;SDS011;53956;52.442;13.284;2023-05-07T00:04:30;20.10;;;15.90;;
18125;SDS011;53956;52.442;13.284;2023-05-07T00:07:01;21.50;;;16.10;;
18125;SDS011;53956;52.442;13.284;2023-05-07T00:09:28;23.77;;;15.67;;
18125;SDS011;53956;52.442;13.284;2023-05-07T00:11:55;26.07;;;16.30;;
18125;SDS011;53956;52.442;13.284;2023-05-07T00:14:21;22.83;;;15.80;;
18125;SDS011;53956;52.442;13.284;2023-05-07T00:16:49;22.97;;;16.70;;
18125;SDS011;53956;52.442;13.284;2023-05-07T00:19:16;22.10;;;15.77;;
18125;SDS011;53956;52.442;13.284;2023-05-07T00:21:42;21.57;;;16.43;;
18125;SDS011;53956;52.442;13.284;2023-05-07T00:24:09;21.53;;;16.53;;
18125;SDS011;53956;52.442;13.284;2023-05-07T00:26:36;21.67;;;14.63;;
18125;SDS011;53956;52.442;13.284;2023-05-07T00:29:02;18.83;;;15.03;;
18125;SDS011;53956;52.442;13.284;2023-05-07T00:31:29;22.00;;;14.37;;
18125;SDS011;53956;52.442;13.284;2023-05-07T00:33:57;22.97;;;16.03;;
18125;SDS011;53956;52.442;13.284;2023-05-07T00:36:24;20.53;;;15.10;;
18125;SDS011;53956;52.442;13.284;2023-05-07T00:38:51;19.20;;;15.50;;
18125;SDS011;53956;52.442;13.284;2023-05-07T00:41:19;17.83;;;13.93;;
18125;SDS011;53956;52.442;13.284;2023-05-07T00:43:46;20.40;;;15.10;;
18125;SDS011;53956;52.442;13.284;2023-05-07T00:46:13;19.17;;;14.67;;
18125;SDS011;53956;52.442;13.284;2023-05-07T00:48:41;20.63;;;15.60;;
18125;SDS011;53956;52.442;13.284;2023-05-07T00:51:09;19.10;;;15.83;;
18125;SDS011;53956;52.442;13.284;2023-05-07T00:53:36;18.80;;;14.90;;
18125;SDS011;53956;52.442;13.284;2023-05-07T00:56:04;17.30;;;14.17;;
18125;SDS011;53956;52.442;13.284;2023-05-07T00:58:32;18.13;;;15.00;;
18125;SDS011;53956;52.442;13.284;2023-05-07T01:00:59;18.57;;;13.97;;
18125;SDS011;53956;52.442;13.284;2023-05-07T01:03:26;19.53;;;14.43;;
18125;SDS011;53956;52.442;13.284;2023-05-07T01:05:52;20.77;;;15.07;;
18125;SDS011;53956;52.442;13.284;2023-05-07T01:08:24;18.60;;;13.83;;
18125;SDS011;53956;52.442;13.284;2023-05-07T01:10:53;17.63;;;12.87;;
18125;SDS011;53956;52.442;13.284;2023-05-07T01:13:20;20.93;;;13.83;;
18125;SDS011;53956;52.442;13.284;2023-05-07T01:15:49;17.23;;;13.13;;
18125;SDS011;53956;52.442;13.284;2023-05-07T01:18:16;16.27;;;11.67;;
18125;SDS011;53956;52.442;13.284;2023-05-07T01:20:43;14.07;;;11.30;;
18125;SDS011;53956;52.442;13.284;2023-05-07T01:23:11;15.50;;;11.93;;
18125;SDS011;53956;52.442;13.284;2023-05-07T01:25:38;14.03;;;11.27;;
18125;SDS011;53956;52.442;13.284;2023-05-07T01:28:06;16.07;;;11.67;;
18125;SDS011;53956;52.442;13.284;2023-05-07T01:30:36;13.23;;;11.80;;
18125;SDS011;53956;52.442;13.284;2023-05-07T01:33:13;13.57;;;11.80;;
18125;SDS011;53956;52.442;13.284;2023-05-07T01:35:45;15.20;;;11.40;;
18125;SDS011;53956;52.442;13.284;2023-05-07T01:38:14;13.93;;;12.13;;
18125;SDS011;53956;52.442;13.284;2023-05-07T01:40:42;14.60;;;11.17;;
18125;SDS011;53956;52.442;13.284;2023-05-07T01:43:09;15.20;;;12.90;;
18125;SDS011;53956;52.442;13.284;2023-05-07T01:45:36;15.00;;;11.80;;
18125;SDS011;53956;52.442;13.284;2023-05-07T01:48:05;14.47;;;11.90;;
18125;SDS011;53956;52.442;13.284;2023-05-07T01:50:32;17.47;;;13.40;;
18125;SDS011;53956;52.442;13.284;2023-05-07T01:53:00;16.27;;;13.37;;
18125;SDS011;53956;52.442;13.284;2023-05-07T01:55:29;18.63;;;14.10;;
18125;SDS011;53956;52.442;13.284;2023-05-07T01:57:57;16.43;;;14.27;;
18125;SDS011;53956;52.442;13.284;2023-05-07T02:00:24;16.83;;;13.97;;
18125;SDS011;53956;52.442;13.284;2023-05-07T02:02:51;18.93;;;13.83;;
18125;SDS011;53956;52.442;13.284;2023-05-07T02:05:30;16.73;;;14.77;;
18125;SDS011;53956;52.442;13.284;2023-05-07T02:08:02;20.63;;;14.53;;
18125;SDS011;53956;52.442;13.284;2023-05-07T02:10:31;16.40;;;13.70;;
18125;SDS011;53956;52.442;13.284;2023-05-07T02:12:58;19.83;;;14.00;;
18125;SDS011;53956;52.442;13.284;2023-05-07T02:15:26;17.37;;;12.67;;
18125;SDS011;53956;52.442;13.284;2023-05-07T02:17:58;19.30;;;14.30;;
18125;SDS011;53956;52.442;13.284;2023-05-07T02:20:26;16.80;;;13.40;;
18125;SDS011;53956;52.442;13.284;2023-05-07T02:22:53;16.67;;;13.33;;
18125;SDS011;53956;52.442;13.284;2023-05-07T02:25:19;17.33;;;13.53;;
18125;SDS011;53956;52.442;13.284;2023-05-07T02:27:47;17.33;;;12.70;;
18125;SDS011;53956;52.442;13.284;2023-05-07T02:30:15;18.57;;;14.03;;
18125;SDS011;53956;52.442;13.284;2023-05-07T02:32:42;16.53;;;13.30;;
18125;SDS011;53956;52.442;13.284;2023-05-07T02:35:09;17.70;;;13.27;;
18125;SDS011;53956;52.442;13.284;2023-05-07T02:37:36;17.23;;;13.87;;
18125;SDS011;53956;52.442;13.284;2023-05-07T02:40:04;19.93;;;13.90;;
18125;SDS011;53956;52.442;13.284;2023-05-07T02:42:32;17.93;;;13.43;;
18125;SDS011;53956;52.442;13.284;2023-05-07T02:45:00;14.73;;;12.67;;
18125;SDS011;53956;52.442;13.284;2023-05-07T02:47:28;16.30;;;12.60;;
18125;SDS011;53956;52.442;13.284;2023-05-07T02:49:57;15.17;;;12.73;;
18125;SDS011;53956;52.442;13.284;2023-05-07T02:52:23;17.60;;;12.77;;
18125;SDS011;53956;52.442;13.284;2023-05-07T02:54:50;17.30;;;12.70;;
18125;SDS011;53956;52.442;13.284;2023-05-07T02:57:17;17.47;;;13.70;;
18125;SDS011;53956;52.442;13.284;2023-05-07T02:59:43;16.27;;;12.80;;
18125;SDS011;53956;52.442;13.284;2023-05-07T03:02:14;19.03;;;13.27;;
18125;SDS011;53956;52.442;13.284;2023-05-07T03:04:41;15.40;;;12.87;;
18125;SDS011;53956;52.442;13.284;2023-05-07T03:07:08;16.37;;;13.00;;
18125;SDS011;53956;52.442;13.284;2023-05-07T03:09:35;15.57;;;12.60;;
18125;SDS011;53956;52.442;13.284;2023-05-07T03:12:02;16.00;;;12.23;;
18125;SDS011;53956;52.442;13.284;2023-05-07T03:14:29;17.97;;;12.50;;
18125;SDS011;53956;52.442;13.284;2023-05-07T03:16:55;15.97;;;12.50;;
18125;SDS011;53956;52.442;13.284;2023-05-07T03:19:23;15.37;;;12.77;;
18125;SDS011;53956;52.442;13.284;2023-05-07T03:21:50;17.00;;;12.90;;
18125;SDS011;53956;52.442;13.284;2023-05-07T03:24:17;17.03;;;12.43;;
18125;SDS011;53956;52.442;13.284;2023-05-07T03:26:44;16.70;;;12.87;;
18125;SDS011;53956;52.442;13.284;2023-05-07T03:29:11;16.17;;;12.60;;
18125;SDS011;53956;52.442;13.284;2023-05-07T03:31:37;16.07;;;11.60;;
18125;SDS011;53956;52.442;13.284;2023-05-07T03:34:04;16.83;;;12.80;;
18125;SDS011;53956;52.442;13.284;2023-05-07T03:36:32;17.20;;;11.70;;
18125;SDS011;53956;52.442;13.284;2023-05-07T03:38:59;17.87;;;13.27;;
18125;SDS011;53956;52.442;13.284;2023-05-07T03:41:33;17.20;;;13.13;;
18125;SDS011;53956;52.442;13.284;2023-05-07T03:44:00;17.90;;;13.60;;
18125;SDS011;53956;52.442;13.284;2023-05-07T03:46:27;17.73;;;13.70;;
18125;SDS011;53956;52.442;13.284;2023-05-07T03:48:54;16.13;;;12.60;;
18125;SDS011;53956;52.442;13.284;2023-05-07T03:51:21;18.17;;;12.87;;
18125;SDS011;53956;52.442;13.284;2023-05-07T03:53:49;16.27;;;13.17;;
18125;SDS011;53956;52.442;13.284;2023-05-07T03:56:18;17.77;;;13.07;;
18125;SDS011;53956;52.442;13.284;2023-05-07T03:58:46;17.10;;;13.77;;
18125;SDS011;53956;52.442;13.284;2023-05-07T04:01:14;16.77;;;13.83;;
18125;SDS011;53956;52.442;13.284;2023-05-07T04:03:41;17.20;;;13.83;;
18125;SDS011;53956;52.442;13.284;2023-05-07T04:06:07;17.30;;;13.83;;
18125;SDS011;53956;52.442;13.284;2023-05-07T04:08:35;17.27;;;14.10;;
18125;SDS011;53956;52.442;13.284;2023-05-07T04:11:04;17.97;;;14.10;;
18125;SDS011;53956;52.442;13.284;2023-05-07T04:13:32;17.90;;;13.63;;
18125;SDS011;53956;52.442;13.284;2023-05-07T04:16:01;17.57;;;14.37;;
18125;SDS011;53956;52.442;13.284;2023-05-07T04:18:29;17.37;;;13.40;;
18125;SDS011;53956;52.442;13.284;2023-05-07T04:20:55;18.40;;;13.90;;
18125;SDS011;53956;52.442;13.284;2023-05-07T04:23:22;18.47;;;13.67;;
18125;SDS011;53956;52.442;13.284;2023-05-07T04:25:49;17.43;;;14.23;;
18125;SDS011;53956;52.442;13.284;2023-05-07T04:28:23;19.33;;;13.40;;
18125;SDS011;53956;52.442;13.284;2023-05-07T04:30:50;17.90;;;14.00;;
18125;SDS011;53956;52.442;13.284;2023-05-07T04:33:18;17.60;;;13.23;;
18125;SDS011;53956;52.442;13.284;2023-05-07T04:35:46;16.63;;;13.70;;
18125;SDS011;53956;52.442;13.284;2023-05-07T04:38:14;16.53;;;13.13;;
18125;SDS011;53956;52.442;13.284;2023-05-07T04:40:41;19.67;;;13.70;;
18125;SDS011;53956;52.442;13.284;2023-05-07T04:43:11;18.77;;;13.50;;
18125;SDS011;53956;52.442;13.284;2023-05-07T04:45:45;17.17;;;13.53;;
18125;SDS011;53956;52.442;13.284;2023-05-07T04:48:12;15.23;;;11.80;;
18125;SDS011;53956;52.442;13.284;2023-05-07T04:50:41;16.03;;;11.83;;
18125;SDS011;53956;52.442;13.284;2023-05-07T04:53:08;15.87;;;12.27;;
18125;SDS011;53956;52.442;13.284;2023-05-07T04:55:35;16.63;;;11.90;;
18125;SDS011;53956;52.442;13.284;2023-05-07T04:58:02;15.73;;;11.90;;
18125;SDS011;53956;52.442;13.284;2023-05-07T05:00:32;15.83;;;12.40;;
18125;SDS011;53956;52.442;13.284;2023-05-07T05:03:02;15.77;;;12.43;;
18125;SDS011;53956;52.442;13.284;2023-05-07T05:05:30;16.00;;;12.07;;
18125;SDS011;53956;52.442;13.284;2023-05-07T05:07:57;15.10;;;12.17;;
18125;SDS011;53956;52.442;13.284;2023-05-07T05:10:24;15.27;;;11.70;;
18125;SDS011;53956;52.442;13.284;2023-05-07T05:12:51;13.33;;;11.43;;
18125;SDS011;53956;52.442;13.284;2023-05-07T05:15:20;13.80;;;11.57;;
18125;SDS011;53956;52.442;13.284;2023-05-07T05:17:47;14.50;;;11.87;;
18125;SDS011;53956;52.442;13.284;2023-05-07T05:20:15;13.90;;;11.17;;
18125;SDS011;53956;52.442;13.284;2023-05-07T05:22:42;14.43;;;11.87;;
18125;SDS011;53956;52.442;13.284;2023-05-07T05:25:12;12.87;;;11.00;;
18125;SDS011;53956;52.442;13.284;2023-05-07T05:27:38;14.83;;;11.60;;
18125;SDS011;53956;52.442;13.284;2023-05-07T05:30:05;13.93;;;10.67;;
18125;SDS011;53956;52.442;13.284;2023-05-07T05:32:34;14.20;;;10.13;;
18125;SDS011;53956;52.442;13.284;2023-05-07T05:35:01;12.37;;;10.37;;
18125;SDS011;53956;52.442;13.284;2023-05-07T05:37:30;12.80;;;10.37;;
18125;SDS011;53956;52.442;13.284;2023-05-07T05:39:58;14.53;;;10.77;;
18125;SDS011;53956;52.442;13.284;2023-05-07T05:42:27;12.40;;;10.63;;
18125;SDS011;53956;52.442;13.284;2023-05-07T05:44:54;13.27;;;10.57;;
18125;SDS011;53956;52.442;13.284;2023-05-07T05:47:22;14.37;;;10.67;;
18125;SDS011;53956;52.442;13.284;2023-05-07T05:49:50;13.80;;;10.20;;
18125;SDS011;53956;52.442;13.284;2023-05-07T05:52:16;11.13;;;9.73;;
18125;SDS011;53956;52.442;13.284;2023-05-07T05:54:44;10.97;;;9.27;;
18125;SDS011;53956;52.442;13.284;2023-05-07T05:57:11;13.17;;;10.40;;
18125;SDS011;53956;52.442;13.284;2023-05-07T05:59:38;12.03;;;9.57;;
18125;SDS011;53956;52.442;13.284;2023-05-07T06:02:05;12.17;;;8.70;;
18125;SDS011;53956;52.442;13.284;2023-05-07T06:04:33;12.30;;;9.73;;
18125;SDS011;53956;52.442;13.284;2023-05-07T06:06:59;11.17;;;9.47;;
18125;SDS011;53956;52.442;13.284;2023-05-07T06:09:26;12.17;;;10.03;;
18125;SDS011;53956;52.442;13.284;2023-05-07T06:11:55;11.50;;;9.47;;
18125;SDS011;53956;52.442;13.284;2023-05-07T06:14:21;12.33;;;9.43;;
18125;SDS011;53956;52.442;13.284;2023-05-07T06:16:48;12.80;;;9.33;;
18125;SDS011;53956;52.442;13.284;2023-05-07T06:19:15;13.37;;;9.13;;
18125;SDS011;53956;52.442;13.284;2023-05-07T06:21:43;10.07;;;8.93;;
18125;SDS011;53956;52.442;13.284;2023-05-07T06:24:10;11.20;;;8.47;;
18125;SDS011;53956;52.442;13.284;2023-05-07T06:26:38;9.17;;;7.63;;
18125;SDS011;53956;52.442;13.284;2023-05-07T06:29:06;9.97;;;7.73;;
18125;SDS011;53956;52.442;13.284;2023-05-07T06:31:33;8.53;;;7.37;;
18125;SDS011;53956;52.442;13.284;2023-05-07T06:34:03;9.57;;;7.80;;
18125;SDS011;53956;52.442;13.284;2023-05-07T06:36:34;10.57;;;8.10;;
18125;SDS011;53956;52.442;13.284;2023-05-07T06:39:08;9.93;;;7.30;;
18125;SDS011;53956;52.442;13.284;2023-05-07T06:41:35;9.93;;;7.80;;
18125;SDS011;53956;52.442;13.284;2023-05-07T06:44:08;8.60;;;7.70;;
18125;SDS011;53956;52.442;13.284;2023-05-07T06:46:40;11.23;;;8.07;;
18125;SDS011;53956;52.442;13.284;2023-05-07T06:49:08;9.37;;;7.70;;
18125;SDS011;53956;52.442;13.284;2023-05-07T06:51:34;11.50;;;8.80;;
18125;SDS011;53956;52.442;13.284;2023-05-07T06:54:02;11.20;;;8.43;;
18125;SDS011;53956;52.442;13.284;2023-05-07T06:56:31;11.17;;;9.27;;
18125;SDS011;53956;52.442;13.284;2023-05-07T06:58:59;12.90;;;9.30;;
18125;SDS011;53956;52.442;13.284;2023-05-07T07:01:30;11.60;;;9.40;;
18125;SDS011;53956;52.442;13.284;2023-05-07T07:03:58;11.80;;;9.47;;
18125;SDS011;53956;52.442;13.284;2023-05-07T07:06:26;11.47;;;8.73;;
18125;SDS011;53956;52.442;13.284;2023-05-07T07:08:53;10.20;;;8.50;;
18125;SDS011;53956;52.442;13.284;2023-05-07T07:11:20;13.77;;;10.20;;
18125;SDS011;53956;52.442;13.284;2023-05-07T07:13:47;11.07;;;9.40;;
18125;SDS011;53956;52.442;13.284;2023-05-07T07:16:14;12.73;;;9.03;;
18125;SDS011;53956;52.442;13.284;2023-05-07T07:18:43;13.03;;;10.20;;
18125;SDS011;53956;52.442;13.284;2023-05-07T07:21:10;13.67;;;9.90;;
18125;SDS011;53956;52.442;13.284;2023-05-07T07:23:36;12.43;;;9.27;;
18125;SDS011;53956;52.442;13.284;2023-05-07T07:26:04;12.20;;;9.20;;
18125;SDS011;53956;52.442;13.284;2023-05-07T07:28:31;11.67;;;9.63;;
18125;SDS011;53956;52.442;13.284;2023-05-07T07:30:58;11.43;;;8.60;;
18125;SDS011;53956;52.442;13.284;2023-05-07T07:33:25;10.70;;;8.60;;
18125;SDS011;53956;52.442;13.284;2023-05-07T07:35:55;10.57;;;8.30;;
18125;SDS011;53956;52.442;13.284;2023-05-07T07:38:21;8.83;;;7.93;;
18125;SDS011;53956;52.442;13.284;2023-05-07T07:40:48;11.17;;;7.83;;
18125;SDS011;53956;52.442;13.284;2023-05-07T07:43:15;11.17;;;7.70;;
18125;SDS011;53956;52.442;13.284;2023-05-07T07:45:43;13.43;;;8.10;;
18125;SDS011;53956;52.442;13.284;2023-05-07T07:48:11;9.80;;;6.93;;
18125;SDS011;53956;52.442;13.284;2023-05-07T07:50:38;9.50;;;7.60;;
18125;SDS011;53956;52.442;13.284;2023-05-07T07:53:07;9.03;;;7.43;;
18125;SDS011;53956;52.442;13.284;2023-05-07T07:55:37;11.40;;;7.30;;
18125;SDS011;53956;52.442;13.284;2023-05-07T07:58:05;7.10;;;6.40;;
18125;SDS011;53956;52.442;13.284;2023-05-07T08:00:32;8.50;;;7.20;;
18125;SDS011;53956;52.442;13.284;2023-05-07T08:02:59;8.77;;;6.67;;
18125;SDS011;53956;52.442;13.284;2023-05-07T08:05:32;8.73;;;6.67;;
18125;SDS011;53956;52.442;13.284;2023-05-07T08:07:59;11.50;;;6.90;;
18125;SDS011;53956;52.442;13.284;2023-05-07T08:10:31;9.13;;;6.80;;
18125;SDS011;53956;52.442;13.284;2023-05-07T08:13:04;6.30;;;5.70;;
18125;SDS011;53956;52.442;13.284;2023-05-07T08:15:35;7.13;;;5.97;;
18125;SDS011;53956;52.442;13.284;2023-05-07T08:18:02;6.70;;;5.70;;
18125;SDS011;53956;52.442;13.284;2023-05-07T08:20:29;7.83;;;5.57;;
18125;SDS011;53956;52.442;13.284;2023-05-07T08:22:57;7.37;;;5.50;;
18125;SDS011;53956;52.442;13.284;2023-05-07T08:25:25;6.77;;;5.23;;
18125;SDS011;53956;52.442;13.284;2023-05-07T08:27:54;7.40;;;5.13;;
18125;SDS011;53956;52.442;13.284;2023-05-07T08:30:21;5.77;;;4.93;;
18125;SDS011;53956;52.442;13.284;2023-05-07T08:32:47;7.33;;;4.70;;
18125;SDS011;53956;52.442;13.284;2023-05-07T08:35:14;5.97;;;4.83;;
18125;SDS011;53956;52.442;13.284;2023-05-07T08:37:41;9.07;;;5.23;;
18125;SDS011;53956;52.442;13.284;2023-05-07T08:40:08;9.57;;;5.80;;
18125;SDS011;53956;52.442;13.284;2023-05-07T08:42:36;6.50;;;5.63;;
18125;SDS011;53956;52.442;13.284;2023-05-07T08:45:05;6.27;;;5.30;;
18125;SDS011;53956;52.442;13.284;2023-05-07T08:47:40;5.43;;;4.40;;
18125;SDS011;53956;52.442;13.284;2023-05-07T08:50:09;5.77;;;4.90;;
18125;SDS011;53956;52.442;13.284;2023-05-07T08:52:37;6.27;;;4.93;;
18125;SDS011;53956;52.442;13.284;2023-05-07T08:55:05;5.50;;;5.00;;
18125;SDS011;53956;52.442;13.284;2023-05-07T08:57:33;7.87;;;4.97;;
18125;SDS011;53956;52.442;13.284;2023-05-07T09:00:02;6.07;;;4.90;;
18125;SDS011;53956;52.442;13.284;2023-05-07T09:02:31;7.33;;;4.93;;
18125;SDS011;53956;52.442;13.284;2023-05-07T09:04:58;5.57;;;4.80;;
18125;SDS011;53956;52.442;13.284;2023-05-07T09:07:25;10.33;;;4.93;;
18125;SDS011;53956;52.442;13.284;2023-05-07T09:09:52;5.70;;;5.00;;
18125;SDS011;53956;52.442;13.284;2023-05-07T09:12:20;6.63;;;4.73;;
18125;SDS011;53956;52.442;13.284;2023-05-07T09:14:47;5.97;;;4.50;;
18125;SDS011;53956;52.442;13.284;2023-05-07T09:17:14;5.30;;;4.40;;
18125;SDS011;53956;52.442;13.284;2023-05-07T09:19:43;6.57;;;4.87;;
18125;SDS011;53956;52.442;13.284;2023-05-07T09:22:10;6.47;;;4.43;;
18125;SDS011;53956;52.442;13.284;2023-05-07T09:24:52;5.20;;;4.30;;
18125;SDS011;53956;52.442;13.284;2023-05-07T09:27:23;5.80;;;4.60;;
18125;SDS011;53956;52.442;13.284;2023-05-07T09:29:50;5.33;;;4.17;;
18125;SDS011;53956;52.442;13.284;2023-05-07T09:32:17;5.77;;;4.13;;
18125;SDS011;53956;52.442;13.284;2023-05-07T09:34:46;4.43;;;3.87;;
18125;SDS011;53956;52.442;13.284;2023-05-07T09:37:15;4.93;;;4.10;;
18125;SDS011;53956;52.442;13.284;2023-05-07T09:39:43;5.13;;;4.17;;
18125;SDS011;53956;52.442;13.284;2023-05-07T09:42:13;7.43;;;3.87;;
18125;SDS011;53956;52.442;13.284;2023-05-07T09:44:40;5.70;;;3.97;;
18125;SDS011;53956;52.442;13.284;2023-05-07T09:47:12;6.07;;;4.30;;
18125;SDS011;53956;52.442;13.284;2023-05-07T09:49:46;4.37;;;3.77;;
18125;SDS011;53956;52.442;13.284;2023-05-07T09:52:17;4.50;;;3.80;;
18125;SDS011;53956;52.442;13.284;2023-05-07T09:54:49;4.33;;;3.70;;
18125;SDS011;53956;52.442;13.284;2023-05-07T09:57:20;4.20;;;3.43;;
18125;SDS011;53956;52.442;13.284;2023-05-07T09:59:54;4.17;;;3.77;;
18125;SDS011;53956;52.442;13.284;2023-05-07T10:02:25;6.27;;;4.20;;
18125;SDS011;53956;52.442;13.284;2023-05-07T10:04:56;4.60;;;4.00;;
18125;SDS011;53956;52.442;13.284;2023-05-07T10:07:28;7.73;;;4.20;;
18125;SDS011;53956;52.442;13.284;2023-05-07T10:10:02;5.27;;;4.07;;
18125;SDS011;53956;52.442;13.284;2023-05-07T10:12:35;4.83;;;4.10;;
18125;SDS011;53956;52.442;13.284;2023-05-07T10:15:07;8.07;;;4.20;;
18125;SDS011;53956;52.442;13.284;2023-05-07T10:17:36;5.97;;;4.10;;
18125;SDS011;53956;52.442;13.284;2023-05-07T10:20:05;5.17;;;4.10;;
18125;SDS011;53956;52.442;13.284;2023-05-07T10:22:34;4.30;;;3.90;;
18125;SDS011;53956;52.442;13.284;2023-05-07T10:25:05;7.17;;;4.03;;
18125;SDS011;53956;52.442;13.284;2023-05-07T10:27:36;3.93;;;3.43;;
18125;SDS011;53956;52.442;13.284;2023-05-07T10:30:06;5.77;;;4.50;;
18125;SDS011;53956;52.442;13.284;2023-05-07T10:32:42;4.27;;;3.73;;
18125;SDS011;53956;52.442;13.284;2023-05-07T10:35:22;5.07;;;3.83;;
18125;SDS011;53956;52.442;13.284;2023-05-07T10:37:52;4.73;;;3.77;;
18125;SDS011;53956;52.442;13.284;2023-05-07T10:40:22;4.97;;;3.60;;
18125;SDS011;53956;52.442;13.284;2023-05-07T10:42:54;4.57;;;3.80;;
18125;SDS011;53956;52.442;13.284;2023-05-07T10:45:22;3.83;;;3.40;;
18125;SDS011;53956;52.442;13.284;2023-05-07T10:48:07;4.77;;;3.50;;
18125;SDS011;53956;52.442;13.284;2023-05-07T10:50:38;4.43;;;3.23;;
18125;SDS011;53956;52.442;13.284;2023-05-07T10:53:22;4.47;;;3.17;;
18125;SDS011;53956;52.442;13.284;2023-05-07T10:56:24;3.73;;;3.00;;
18125;SDS011;53956;52.442;13.284;2023-05-07T11:02:23;3.40;;;2.90;;
18125;SDS011;53956;52.442;13.284;2023-05-07T11:05:18;3.03;;;2.73;;
18125;SDS011;53956;52.442;13.284;2023-05-07T11:07:55;3.30;;;3.00;;
18125;SDS011;53956;52.442;13.284;2023-05-07T11:13:40;3.73;;;3.20;;
18125;SDS011;53956;52.442;13.284;2023-05-07T11:16:17;3.40;;;2.90;;
18125;SDS011;53956;52.442;13.284;2023-05-07T11:18:46;3.10;;;2.80;;
18125;SDS011;53956;52.442;13.284;2023-05-07T11:24:17;3.27;;;2.70;;
18125;SDS011;53956;52.442;13.284;2023-05-07T11:26:56;3.43;;;2.87;;
18125;SDS011;53956;52.442;13.284;2023-05-07T11:29:25;3.20;;;2.90;;
18125;SDS011;53956;52.442;13.284;2023-05-07T11:32:06;2.97;;;2.67;;
18125;SDS011;53956;52.442;13.284;2023-05-07T11:34:42;3.10;;;2.80;;
18125;SDS011;53956;52.442;13.284;2023-05-07T11:37:10;3.50;;;2.75;;
18125;SDS011;53956;52.442;13.284;2023-05-07T11:39:46;4.35;;;2.88;;
18125;SDS011;53956;52.442;13.284;2023-05-07T11:42:24;3.38;;;2.80;;
18125;SDS011;53956;52.442;13.284;2023-05-07T11:44:52;4.35;;;3.03;;
18125;SDS011;53956;52.442;13.284;2023-05-07T11:47:19;4.97;;;2.75;;
18125;SDS011;53956;52.442;13.284;2023-05-07T11:49:47;3.40;;;2.90;;
18125;SDS011;53956;52.442;13.284;2023-05-07T11:52:14;5.60;;;2.70;;
18125;SDS011;53956;52.442;13.284;2023-05-07T11:54:41;3.00;;;2.70;;
18125;SDS011;53956;52.442;13.284;2023-05-07T11:57:15;3.10;;;2.80;;
18125;SDS011;53956;52.442;13.284;2023-05-07T11:59:42;3.28;;;2.70;;
18125;SDS011;53956;52.442;13.284;2023-05-07T12:02:10;4.28;;;2.80;;
18125;SDS011;53956;52.442;13.284;2023-05-07T12:04:39;4.40;;;2.90;;
18125;SDS011;53956;52.442;13.284;2023-05-07T12:07:10;3.38;;;2.70;;
18125;SDS011;53956;52.442;13.284;2023-05-07T12:09:37;3.20;;;2.85;;
18125;SDS011;53956;52.442;13.284;2023-05-07T12:12:05;3.08;;;2.78;;
18125;SDS011;53956;52.442;13.284;2023-05-07T12:14:33;2.80;;;2.60;;
18125;SDS011;53956;52.442;13.284;2023-05-07T12:17:03;3.63;;;2.78;;
18125;SDS011;53956;52.442;13.284;2023-05-07T12:19:31;2.90;;;2.60;;
18125;SDS011;53956;52.442;13.284;2023-05-07T12:22:00;3.40;;;2.60;;
18125;SDS011;53956;52.442;13.284;2023-05-07T12:24:28;3.85;;;2.60;;
18125;SDS011;53956;52.442;13.284;2023-05-07T12:26:55;2.80;;;2.45;;
18125;SDS011;53956;52.442;13.284;2023-05-07T12:29:22;3.28;;;2.50;;
18125;SDS011;53956;52.442;13.284;2023-05-07T12:31:50;3.13;;;2.50;;
18125;SDS011;53956;52.442;13.284;2023-05-07T12:34:17;2.60;;;2.40;;
18125;SDS011;53956;52.442;13.284;2023-05-07T12:36:43;4.40;;;2.53;;
18125;SDS011;53956;52.442;13.284;2023-05-07T12:39:10;2.72;;;2.42;;
18125;SDS011;53956;52.442;13.284;2023-05-07T12:41:51;3.15;;;2.70;;
18125;SDS011;53956;52.442;13.284;2023-05-07T12:44:19;3.20;;;2.75;;
18125;SDS011;53956;52.442;13.284;2023-05-07T12:46:47;3.30;;;2.70;;
18125;SDS011;53956;52.442;13.284;2023-05-07T12:49:16;8.45;;;2.60;;
18125;SDS011;53956;52.442;13.284;2023-05-07T12:51:43;2.80;;;2.40;;
18125;SDS011;53956;52.442;13.284;2023-05-07T12:54:09;10.43;;;2.50;;
18125;SDS011;53956;52.442;13.284;2023-05-07T12:56:36;3.72;;;2.67;;
18125;SDS011;53956;52.442;13.284;2023-05-07T12:59:02;3.40;;;2.42;;
18125;SDS011;53956;52.442;13.284;2023-05-07T13:01:29;2.88;;;2.58;;
18125;SDS011;53956;52.442;13.284;2023-05-07T13:04:00;3.13;;;2.53;;
18125;SDS011;53956;52.442;13.284;2023-05-07T13:06:29;2.70;;;2.50;;
18125;SDS011;53956;52.442;13.284;2023-05-07T13:08:56;2.83;;;2.45;;
18125;SDS011;53956;52.442;13.284;2023-05-07T13:11:23;3.20;;;2.70;;
18125;SDS011;53956;52.442;13.284;2023-05-07T13:13:50;4.55;;;3.22;;
18125;SDS011;53956;52.442;13.284;2023-05-07T13:16:16;4.43;;;2.67;;
18125;SDS011;53956;52.442;13.284;2023-05-07T13:18:43;5.00;;;3.08;;
18125;SDS011;53956;52.442;13.284;2023-05-07T13:21:10;4.47;;;2.45;;
18125;SDS011;53956;52.442;13.284;2023-05-07T13:23:39;3.80;;;2.70;;
18125;SDS011;53956;52.442;13.284;2023-05-07T13:26:06;3.45;;;2.53;;
18125;SDS011;53956;52.442;13.284;2023-05-07T13:28:33;2.63;;;2.42;;
18125;SDS011;53956;52.442;13.284;2023-05-07T13:31:00;4.80;;;2.30;;
18125;SDS011;53956;52.442;13.284;2023-05-07T13:33:27;2.88;;;2.42;;
18125;SDS011;53956;52.442;13.284;2023-05-07T13:35:54;3.90;;;2.60;;
18125;SDS011;53956;52.442;13.284;2023-05-07T13:38:22;6.43;;;2.30;;
18125;SDS011;53956;52.442;13.284;2023-05-07T13:40:50;3.22;;;2.78;;
18125;SDS011;53956;52.442;13.284;2023-05-07T13:43:16;5.68;;;2.10;;
18125;SDS011;53956;52.442;13.284;2023-05-07T13:45:43;2.50;;;2.00;;
18125;SDS011;53956;52.442;13.284;2023-05-07T13:48:10;2.90;;;2.50;;
18125;SDS011;53956;52.442;13.284;2023-05-07T13:50:37;4.85;;;2.30;;
18125;SDS011;53956;52.442;13.284;2023-05-07T13:53:03;4.25;;;2.40;;
18125;SDS011;53956;52.442;13.284;2023-05-07T13:55:30;2.45;;;2.10;;
18125;SDS011;53956;52.442;13.284;2023-05-07T13:57:58;5.00;;;2.38;;
18125;SDS011;53956;52.442;13.284;2023-05-07T14:00:28;2.30;;;2.10;;
18125;SDS011;53956;52.442;13.284;2023-05-07T14:02:55;3.33;;;2.38;;
18125;SDS011;53956;52.442;13.284;2023-05-07T14:05:22;2.70;;;2.25;;
18125;SDS011;53956;52.442;13.284;2023-05-07T14:07:51;2.60;;;2.38;;
18125;SDS011;53956;52.442;13.284;2023-05-07T14:10:18;3.05;;;2.55;;
18125;SDS011;53956;52.442;13.284;2023-05-07T14:12:44;2.50;;;2.20;;
18125;SDS011;53956;52.442;13.284;2023-05-07T14:15:14;2.50;;;2.30;;
18125;SDS011;53956;52.442;13.284;2023-05-07T14:17:41;3.70;;;2.30;;
18125;SDS011;53956;52.442;13.284;2023-05-07T14:20:08;3.97;;;2.33;;
18125;SDS011;53956;52.442;13.284;2023-05-07T14:22:36;2.60;;;2.20;;
18125;SDS011;53956;52.442;13.284;2023-05-07T14:25:03;2.88;;;2.33;;
18125;SDS011;53956;52.442;13.284;2023-05-07T14:27:30;2.92;;;2.50;;
18125;SDS011;53956;52.442;13.284;2023-05-07T14:29:57;2.97;;;2.20;;
18125;SDS011;53956;52.442;13.284;2023-05-07T14:32:25;4.38;;;2.50;;
18125;SDS011;53956;52.442;13.284;2023-05-07T14:34:51;2.97;;;2.67;;
18125;SDS011;53956;52.442;13.284;2023-05-07T14:37:18;4.95;;;2.90;;
18125;SDS011;53956;52.442;13.284;2023-05-07T14:39:45;3.22;;;2.80;;
18125;SDS011;53956;52.442;13.284;2023-05-07T14:42:12;3.47;;;2.50;;